createdAt,value
2019-02-26T00:00:44.893Z,26.80
2019-02-26T00:01:40.067Z,26.10
2019-02-26T00:02:40.048Z,26.40
2019-02-26T00:03:40.031Z,26.10
2019-02-26T00:04:40.005Z,26.40
2019-02-26T00:05:39.992Z,26.20
2019-02-26T00:06:39.976Z,26.10
2019-02-26T00:07:39.957Z,26.60
2019-02-26T00:08:39.931Z,25.30
2019-02-26T00:09:39.923Z,25.80
2019-02-26T00:10:39.895Z,26.50
2019-02-26T00:11:40.301Z,25.30
2019-02-26T00:12:39.855Z,25.90
2019-02-26T00:13:39.835Z,26.20
2019-02-26T00:14:39.820Z,26.10
2019-02-26T00:15:40.549Z,25.30
2019-02-26T00:16:42.276Z,26.20
2019-02-26T00:17:41.170Z,26.10
2019-02-26T00:18:39.746Z,25.30
2019-02-26T00:19:39.728Z,25.60
2019-02-26T00:20:41.406Z,26.70
2019-02-26T00:21:39.686Z,25.50
2019-02-26T00:22:41.205Z,26.30
2019-02-26T00:23:39.651Z,26.10
2019-02-26T00:24:39.923Z,24.60
2019-02-26T00:25:39.609Z,26.40
2019-02-26T00:26:40.851Z,25.30
2019-02-26T00:27:39.580Z,24.90
2019-02-26T00:28:41.475Z,25.30
2019-02-26T00:29:39.537Z,24.70
2019-02-26T00:30:40.369Z,25.20
2019-02-26T00:31:39.498Z,25.90
2019-02-26T00:32:40.493Z,26.60
2019-02-26T00:33:39.464Z,25.90
2019-02-26T00:34:41.099Z,25.40
2019-02-26T00:35:41.514Z,26.60
2019-02-26T00:36:39.409Z,26.10
2019-02-26T00:37:39.387Z,25.60
2019-02-26T00:38:40.007Z,25.60
2019-02-26T00:39:39.346Z,25.70
2019-02-26T00:40:40.964Z,25.00
2019-02-26T00:41:40.335Z,25.40
2019-02-26T00:42:39.290Z,25.00
2019-02-26T00:43:39.271Z,26.50
2019-02-26T00:44:39.257Z,26.20
2019-02-26T00:45:39.278Z,25.10
2019-02-26T00:46:39.617Z,25.70
2019-02-26T00:47:41.046Z,24.80
2019-02-26T00:48:40.682Z,25.30
2019-02-26T00:49:39.156Z,25.50
2019-02-26T00:50:39.781Z,25.20
2019-02-26T00:51:42.316Z,24.90
2019-02-26T00:52:39.266Z,25.10
2019-02-26T00:53:39.080Z,25.70
2019-02-26T00:54:39.062Z,25.50
2019-02-26T00:55:39.679Z,24.30
2019-02-26T00:56:41.009Z,24.90
2019-02-26T00:57:40.705Z,25.20
2019-02-26T00:58:41.088Z,24.10
2019-02-26T00:59:41.280Z,25.20
2019-02-26T01:00:38.945Z,26.30
2019-02-26T01:01:38.929Z,25.20
2019-02-26T01:02:38.911Z,25.70
2019-02-26T01:03:40.720Z,25.80
2019-02-26T01:04:39.619Z,25.00
2019-02-26T01:05:40.833Z,25.00
2019-02-26T01:06:38.838Z,24.90
2019-02-26T01:07:38.821Z,25.60
2019-02-26T01:08:40.273Z,25.70
2019-02-26T01:09:38.779Z,25.40
2019-02-26T01:10:39.805Z,25.60
2019-02-26T01:11:38.744Z,23.30
2019-02-26T01:12:40.296Z,25.20
2019-02-26T01:13:38.701Z,24.50
2019-02-26T01:14:39.156Z,25.30
2019-02-26T01:15:38.662Z,25.00
2019-02-26T01:16:39.404Z,24.70
2019-02-26T01:17:40.117Z,26.20
2019-02-26T01:18:38.611Z,25.00
2019-02-26T01:19:40.360Z,24.90
2019-02-26T01:20:38.571Z,24.40
2019-02-26T01:21:38.548Z,24.00
2019-02-26T01:22:40.321Z,25.10
2019-02-26T01:23:38.508Z,25.10
2019-02-26T01:24:38.488Z,25.60
2019-02-26T01:25:38.866Z,24.60
2019-02-26T01:26:38.447Z,25.80
2019-02-26T01:27:38.429Z,24.80
2019-02-26T01:28:39.694Z,25.20
2019-02-26T01:29:38.391Z,25.10
2019-02-26T01:30:38.372Z,25.20
2019-02-26T01:31:38.357Z,25.70
2019-02-26T01:32:38.338Z,25.00
2019-02-26T01:33:38.313Z,26.50
2019-02-26T01:34:40.407Z,26.30
2019-02-26T01:35:38.276Z,24.40
2019-02-26T01:36:40.241Z,24.80
2019-02-26T01:37:38.237Z,26.20
2019-02-26T01:38:41.536Z,25.20
2019-02-26T01:39:40.432Z,24.80
2019-02-26T01:40:41.525Z,23.90
2019-02-26T01:41:41.345Z,25.90
2019-02-26T01:42:38.148Z,26.50
2019-02-26T01:43:38.121Z,25.10
2019-02-26T01:44:39.811Z,26.50
2019-02-26T01:45:38.082Z,25.60
2019-02-26T01:46:38.970Z,25.50
2019-02-26T01:47:38.061Z,24.90
2019-02-26T01:48:39.517Z,26.00
2019-02-26T01:49:39.685Z,26.30
2019-02-26T01:50:40.604Z,27.00
2019-02-26T01:51:37.964Z,26.30
2019-02-26T01:52:37.945Z,26.20
2019-02-26T01:53:37.926Z,25.40
2019-02-26T01:54:39.596Z,24.40
2019-02-26T01:55:39.397Z,25.40
2019-02-26T01:56:37.866Z,24.80
2019-02-26T01:57:37.851Z,25.40
2019-02-26T01:58:37.828Z,25.40
2019-02-26T01:59:37.808Z,25.40
2019-02-26T02:00:38.686Z,25.20
2019-02-26T02:01:40.004Z,26.30
2019-02-26T02:02:37.756Z,25.80
2019-02-26T02:03:37.732Z,25.60
2019-02-26T02:04:39.326Z,26.20
2019-02-26T02:05:37.691Z,24.50
2019-02-26T02:06:39.191Z,25.60
2019-02-26T02:07:37.654Z,26.50
2019-02-26T02:08:41.332Z,26.40
2019-02-26T02:09:37.622Z,25.50
2019-02-26T02:10:37.600Z,25.00
2019-02-26T02:11:38.120Z,25.10
2019-02-26T02:12:39.588Z,26.30
2019-02-26T02:13:38.650Z,25.20
2019-02-26T02:14:37.520Z,26.50
2019-02-26T02:15:38.239Z,26.20
2019-02-26T02:16:37.487Z,26.10
2019-02-26T02:17:38.394Z,24.90
2019-02-26T02:18:37.440Z,25.20
2019-02-26T02:19:37.421Z,24.60
2019-02-26T02:20:37.398Z,25.80
2019-02-26T02:21:37.386Z,25.80
2019-02-26T02:22:38.091Z,25.80
2019-02-26T02:23:37.344Z,25.40
2019-02-26T02:24:39.329Z,25.10
2019-02-26T02:25:38.753Z,24.80
2019-02-26T02:26:37.283Z,25.20
2019-02-26T02:27:37.264Z,25.80
2019-02-26T02:28:37.243Z,25.40
2019-02-26T02:29:37.228Z,27.20
2019-02-26T02:30:39.010Z,24.90
2019-02-26T02:31:37.827Z,26.40
2019-02-26T02:32:37.164Z,25.90
2019-02-26T02:33:37.616Z,26.60
2019-02-26T02:34:40.131Z,25.40
2019-02-26T02:35:37.116Z,25.80
2019-02-26T02:36:37.085Z,25.00
2019-02-26T02:37:37.066Z,26.20
2019-02-26T02:38:37.261Z,25.70
2019-02-26T02:39:37.034Z,26.40
2019-02-26T02:40:38.091Z,25.40
2019-02-26T02:41:39.384Z,26.00
2019-02-26T02:42:37.697Z,26.00
2019-02-26T02:43:36.949Z,25.80
2019-02-26T02:44:36.926Z,26.60
2019-02-26T02:45:36.916Z,26.50
2019-02-26T02:46:39.184Z,25.60
2019-02-26T02:47:38.757Z,24.90
2019-02-26T02:48:36.848Z,25.80
2019-02-26T02:49:39.367Z,26.80
2019-02-26T02:50:36.825Z,25.70
2019-02-26T02:51:39.456Z,24.90
2019-02-26T02:52:37.951Z,24.60
2019-02-26T02:53:36.750Z,25.50
2019-02-26T02:54:38.594Z,24.90
2019-02-26T02:55:37.843Z,26.80
2019-02-26T02:56:39.161Z,25.50
2019-02-26T02:57:36.675Z,24.80
2019-02-26T02:58:38.589Z,27.20
2019-02-26T02:59:37.377Z,25.60
2019-02-26T03:00:36.611Z,25.70
2019-02-26T03:01:36.591Z,25.60
2019-02-26T03:02:40.500Z,24.90
2019-02-26T03:03:36.556Z,24.10
2019-02-26T03:04:36.530Z,26.20
2019-02-26T03:05:38.068Z,24.50
2019-02-26T03:06:38.701Z,25.40
2019-02-26T03:07:36.502Z,25.90
2019-02-26T03:08:36.456Z,24.70
2019-02-26T03:09:37.753Z,24.30
2019-02-26T03:10:38.999Z,25.60
2019-02-26T03:11:41.002Z,24.20
2019-02-26T03:12:36.373Z,24.50
2019-02-26T03:13:36.354Z,23.90
2019-02-26T03:14:39.191Z,24.30
2019-02-26T03:15:36.314Z,26.10
2019-02-26T03:16:36.313Z,25.80
2019-02-26T03:17:36.272Z,25.50
2019-02-26T03:18:36.255Z,24.60
2019-02-26T03:19:38.440Z,24.50
2019-02-26T03:20:39.808Z,25.40
2019-02-26T03:21:36.192Z,24.50
2019-02-26T03:22:38.857Z,24.30
2019-02-26T03:23:38.036Z,25.10
2019-02-26T03:24:36.140Z,24.30
2019-02-26T03:25:36.115Z,23.90
2019-02-26T03:26:36.098Z,22.70
2019-02-26T03:27:36.889Z,23.60
2019-02-26T03:28:37.476Z,23.70
2019-02-26T03:29:36.029Z,24.40
2019-02-26T03:30:40.528Z,23.40
2019-02-26T03:31:40.526Z,23.90
2019-02-26T03:32:37.866Z,23.60
2019-02-26T03:33:35.952Z,24.60
2019-02-26T03:34:35.930Z,24.20
2019-02-26T03:35:35.913Z,23.80
2019-02-26T03:36:38.278Z,25.10
2019-02-26T03:37:36.571Z,24.40
2019-02-26T03:38:35.850Z,24.60
2019-02-26T03:39:35.838Z,25.30
2019-02-26T03:40:36.170Z,24.40
2019-02-26T03:41:35.789Z,25.30
2019-02-26T03:42:37.961Z,24.30
2019-02-26T03:43:37.078Z,24.70
2019-02-26T03:44:35.741Z,24.60
2019-02-26T03:45:35.710Z,24.40
2019-02-26T03:46:35.688Z,24.50
2019-02-26T03:47:35.672Z,25.00
2019-02-26T03:48:35.650Z,23.90
2019-02-26T03:49:35.625Z,23.50
2019-02-26T03:50:35.605Z,24.70
2019-02-26T03:51:39.155Z,24.90
2019-02-26T03:52:35.574Z,25.10
2019-02-26T03:53:36.318Z,24.10
2019-02-26T03:54:37.421Z,24.50
2019-02-26T03:55:36.105Z,24.70
2019-02-26T03:56:35.509Z,25.00
2019-02-26T03:57:35.463Z,26.00
2019-02-26T03:58:35.447Z,25.00
2019-02-26T03:59:35.436Z,24.50
2019-02-26T04:00:37.651Z,23.40
2019-02-26T04:01:35.385Z,25.00
2019-02-26T04:02:37.421Z,24.20
2019-02-26T04:03:37.577Z,24.80
2019-02-26T04:04:35.321Z,24.50
2019-02-26T04:05:35.300Z,25.00
2019-02-26T04:06:36.622Z,25.00
2019-02-26T04:07:36.101Z,25.50
2019-02-26T04:08:35.246Z,25.10
2019-02-26T04:09:39.078Z,24.90
2019-02-26T04:10:35.225Z,23.80
2019-02-26T04:11:35.180Z,24.90
2019-02-26T04:12:39.158Z,24.00
2019-02-26T04:13:35.139Z,24.10
2019-02-26T04:14:35.121Z,25.60
2019-02-26T04:15:36.386Z,23.20
2019-02-26T04:16:35.371Z,24.10
2019-02-26T04:17:36.968Z,23.90
2019-02-26T04:18:35.046Z,23.90
2019-02-26T04:19:35.025Z,23.90
2019-02-26T04:20:34.999Z,24.00
2019-02-26T04:21:34.981Z,23.10
2019-02-26T04:22:34.961Z,23.30
2019-02-26T04:23:36.119Z,23.00
2019-02-26T04:24:37.408Z,24.00
2019-02-26T04:25:36.432Z,23.70
2019-02-26T04:26:35.181Z,24.90
2019-02-26T04:27:36.311Z,23.50
2019-02-26T04:28:37.189Z,24.20
2019-02-26T04:29:36.098Z,24.90
2019-02-26T04:30:38.995Z,23.90
2019-02-26T04:31:34.778Z,24.20
2019-02-26T04:32:37.761Z,23.90
2019-02-26T04:33:35.996Z,24.50
2019-02-26T04:34:34.718Z,25.20
2019-02-26T04:35:34.699Z,25.60
2019-02-26T04:36:36.896Z,24.70
2019-02-26T04:37:35.257Z,24.80
2019-02-26T04:38:34.633Z,24.40
2019-02-26T04:39:36.750Z,23.80
2019-02-26T04:40:36.320Z,24.00
2019-02-26T04:41:34.571Z,25.60
2019-02-26T04:42:35.163Z,24.30
2019-02-26T04:43:36.143Z,25.10
2019-02-26T04:44:34.536Z,24.60
2019-02-26T04:45:34.495Z,25.00
2019-02-26T04:46:36.922Z,24.10
2019-02-26T04:47:34.452Z,24.80
2019-02-26T04:48:34.441Z,24.30
2019-02-26T04:49:38.348Z,24.80
2019-02-26T04:50:35.763Z,24.60
2019-02-26T04:51:36.340Z,25.00
2019-02-26T04:52:35.769Z,25.10
2019-02-26T04:53:36.394Z,25.00
2019-02-26T04:54:36.816Z,25.30
2019-02-26T04:55:36.072Z,25.60
2019-02-26T04:56:39.052Z,25.30
2019-02-26T04:57:34.247Z,25.30
2019-02-26T04:58:37.127Z,25.20
2019-02-26T04:59:34.809Z,25.40
2019-02-26T05:00:37.953Z,23.30
2019-02-26T05:01:34.786Z,24.90
2019-02-26T05:02:34.146Z,25.20
2019-02-26T05:03:34.127Z,23.80
2019-02-26T05:04:36.857Z,24.40
2019-02-26T05:05:36.914Z,24.60
2019-02-26T05:06:34.063Z,24.80
2019-02-26T05:07:35.592Z,25.70
2019-02-26T05:08:37.103Z,24.80
2019-02-26T05:09:35.447Z,25.90
2019-02-26T05:10:34.363Z,28.30
2019-02-26T05:11:37.264Z,28.50
2019-02-26T05:12:36.688Z,33.60
2019-02-26T05:13:34.593Z,25.50
2019-02-26T05:14:33.902Z,25.60
2019-02-26T05:15:33.881Z,26.00
2019-02-26T05:16:35.224Z,25.00
2019-02-26T05:17:33.839Z,25.20
2019-02-26T05:18:34.579Z,24.70
2019-02-26T05:19:33.827Z,25.80
2019-02-26T05:20:34.830Z,25.40
2019-02-26T05:21:35.421Z,24.50
2019-02-26T05:22:33.737Z,24.40
2019-02-26T05:23:33.739Z,25.20
2019-02-26T05:24:33.693Z,25.20
2019-02-26T05:25:35.076Z,25.40
2019-02-26T05:26:33.655Z,24.70
2019-02-26T05:27:33.636Z,25.20
2019-02-26T05:28:37.678Z,24.80
2019-02-26T05:29:33.598Z,27.30
2019-02-26T05:30:33.574Z,25.60
2019-02-26T05:31:35.808Z,25.30
2019-02-26T05:32:35.576Z,25.30
2019-02-26T05:33:33.506Z,25.00
2019-02-26T05:34:33.487Z,24.60
2019-02-26T05:35:33.478Z,24.70
2019-02-26T05:36:34.470Z,24.60
2019-02-26T05:37:37.019Z,25.30
2019-02-26T05:38:34.983Z,25.90
2019-02-26T05:39:33.386Z,25.60
2019-02-26T05:40:37.465Z,25.70
2019-02-26T05:41:33.343Z,25.60
2019-02-26T05:42:33.324Z,26.60
2019-02-26T05:43:33.970Z,26.50
2019-02-26T05:44:33.281Z,26.30
2019-02-26T05:45:35.608Z,26.20
2019-02-26T05:46:33.245Z,25.90
2019-02-26T05:47:33.218Z,25.60
2019-02-26T05:48:33.200Z,24.70
2019-02-26T05:49:35.365Z,25.40
2019-02-26T05:50:35.554Z,25.80
2019-02-26T05:51:35.441Z,25.70
2019-02-26T05:52:35.665Z,26.10
2019-02-26T05:53:33.103Z,25.10
2019-02-26T05:54:33.082Z,26.60
2019-02-26T05:55:33.057Z,26.30
2019-02-26T05:56:34.142Z,25.40
2019-02-26T05:57:33.026Z,25.60
2019-02-26T05:58:33.594Z,25.90
2019-02-26T05:59:32.969Z,25.10
2019-02-26T06:00:33.438Z,25.00
2019-02-26T06:01:32.931Z,23.60
2019-02-26T06:02:32.916Z,24.10
2019-02-26T06:03:32.887Z,24.40
2019-02-26T06:04:35.191Z,24.40
2019-02-26T06:05:32.845Z,24.30
2019-02-26T06:06:32.843Z,23.80
2019-02-26T06:07:35.545Z,24.60
2019-02-26T06:08:35.676Z,24.50
2019-02-26T06:09:33.847Z,24.40
2019-02-26T06:10:32.746Z,25.20
2019-02-26T06:11:34.007Z,24.60
2019-02-26T06:12:35.345Z,24.70
2019-02-26T06:13:35.493Z,23.70
2019-02-26T06:14:33.780Z,23.90
2019-02-26T06:15:34.155Z,23.10
2019-02-26T06:16:32.619Z,23.90
2019-02-26T06:17:37.898Z,24.10
2019-02-26T06:18:32.580Z,24.80
2019-02-26T06:19:36.724Z,24.90
2019-02-26T06:20:36.074Z,26.10
2019-02-26T06:21:32.524Z,25.60
2019-02-26T06:22:34.570Z,26.90
2019-02-26T06:23:34.467Z,27.10
2019-02-26T06:24:33.169Z,27.20
2019-02-26T06:25:32.437Z,24.40
2019-02-26T06:26:33.380Z,28.00
2019-02-26T06:27:32.391Z,27.20
2019-02-26T06:28:35.517Z,28.10
2019-02-26T06:29:33.079Z,27.20
2019-02-26T06:30:32.329Z,27.60
2019-02-26T06:31:32.308Z,26.90
2019-02-26T06:32:34.614Z,28.90
2019-02-26T06:33:36.105Z,28.60
2019-02-26T06:34:32.242Z,29.10
2019-02-26T06:35:33.696Z,29.60
2019-02-26T06:36:32.203Z,28.20
2019-02-26T06:37:33.833Z,27.60
2019-02-26T06:38:32.778Z,27.90
2019-02-26T06:39:33.899Z,28.00
2019-02-26T06:40:34.509Z,28.70
2019-02-26T06:41:32.101Z,28.10
2019-02-26T06:42:33.723Z,29.40
2019-02-26T06:43:35.420Z,28.40
2019-02-26T06:44:32.037Z,28.50
2019-02-26T06:45:32.013Z,27.90
2019-02-26T06:46:33.657Z,28.00
2019-02-26T06:47:33.300Z,28.70
2019-02-26T06:48:32.376Z,30.70
2019-02-26T06:49:31.928Z,31.00
2019-02-26T06:50:33.921Z,30.80
2019-02-26T06:51:31.890Z,31.20
2019-02-26T06:52:35.147Z,29.70
2019-02-26T06:53:31.848Z,30.60
2019-02-26T06:54:31.891Z,31.10
2019-02-26T06:55:31.814Z,29.80
2019-02-26T06:56:34.496Z,29.20
2019-02-26T06:57:31.777Z,30.10
2019-02-26T06:58:31.753Z,29.20
2019-02-26T06:59:34.236Z,29.10
2019-02-26T07:00:31.719Z,29.60
2019-02-26T07:01:32.791Z,29.30
2019-02-26T07:02:31.685Z,28.50
2019-02-26T07:03:31.661Z,28.10
2019-02-26T07:04:31.647Z,27.60
2019-02-26T07:05:31.632Z,27.60
2019-02-26T07:06:33.128Z,28.30
2019-02-26T07:07:31.594Z,28.50
2019-02-26T07:08:31.575Z,27.20
2019-02-26T07:09:32.434Z,29.40
2019-02-26T07:10:33.704Z,28.40
2019-02-26T07:11:33.650Z,28.30
2019-02-26T07:12:31.510Z,27.10
2019-02-26T07:13:31.510Z,27.80
2019-02-26T07:14:32.706Z,27.50
2019-02-26T07:15:31.462Z,27.80
2019-02-26T07:16:31.455Z,26.80
2019-02-26T07:17:33.690Z,27.50
2019-02-26T07:18:31.419Z,26.40
2019-02-26T07:19:33.222Z,26.80
2019-02-26T07:20:33.987Z,27.40
2019-02-26T07:21:31.373Z,27.10
2019-02-26T07:22:31.366Z,26.90
2019-02-26T07:23:34.574Z,28.30
2019-02-26T07:24:31.332Z,27.10
2019-02-26T07:25:33.573Z,27.60
2019-02-26T07:26:31.322Z,27.50
2019-02-26T07:27:32.051Z,26.30
2019-02-26T07:28:31.283Z,27.50
2019-02-26T07:29:35.150Z,27.40
2019-02-26T07:30:32.636Z,27.90
2019-02-26T07:31:33.178Z,27.30
2019-02-26T07:32:31.245Z,26.60
2019-02-26T07:33:32.907Z,27.60
2019-02-26T07:34:31.228Z,27.20
2019-02-26T07:35:32.804Z,27.60
2019-02-26T07:36:31.201Z,27.40
2019-02-26T07:37:33.391Z,28.10
2019-02-26T07:38:40.621Z,27.40
2019-02-26T07:39:31.183Z,27.50
2019-02-26T07:40:33.020Z,27.80
2019-02-26T07:41:31.166Z,26.90
2019-02-26T07:42:34.699Z,28.50
2019-02-26T07:43:31.136Z,25.20
2019-02-26T07:44:31.135Z,25.70
2019-02-26T07:45:32.282Z,26.20
2019-02-26T07:46:33.192Z,27.00
2019-02-26T07:47:32.026Z,25.10
2019-02-26T07:48:31.740Z,24.60
2019-02-26T07:49:31.093Z,25.70
2019-02-26T07:50:34.751Z,25.90
2019-02-26T07:51:32.971Z,24.40
2019-02-26T07:52:32.962Z,23.80
2019-02-26T07:53:31.062Z,23.50
2019-02-26T07:54:31.061Z,23.80
2019-02-26T07:55:32.790Z,23.60
2019-02-26T07:56:32.731Z,24.10
2019-02-26T07:57:31.045Z,24.40
2019-02-26T07:58:33.175Z,25.20
2019-02-26T07:59:34.451Z,24.40
2019-02-26T08:00:32.871Z,24.50
2019-02-26T08:01:31.020Z,23.70
2019-02-26T08:02:32.611Z,22.70
2019-02-26T08:03:31.017Z,23.70
2019-02-26T08:04:32.311Z,23.30
2019-02-26T08:05:30.996Z,24.10
2019-02-26T08:06:31.676Z,24.20
2019-02-26T08:07:30.990Z,25.30
2019-02-26T08:08:30.985Z,25.10
2019-02-26T08:09:30.981Z,24.00
2019-02-26T08:10:35.095Z,24.90
2019-02-26T08:11:30.973Z,23.80
2019-02-26T08:12:33.435Z,23.80
2019-02-26T08:13:32.079Z,22.60
2019-02-26T08:14:30.963Z,23.70
2019-02-26T08:15:32.860Z,23.50
2019-02-26T08:16:30.955Z,23.20
2019-02-26T08:17:30.954Z,24.00
2019-02-26T08:18:30.961Z,23.40
2019-02-26T08:19:30.982Z,24.20
2019-02-26T08:20:32.942Z,23.50
2019-02-26T08:21:30.950Z,23.00
2019-02-26T08:22:32.335Z,23.40
2019-02-26T08:23:30.940Z,26.10
2019-02-26T08:24:30.950Z,24.90
2019-02-26T08:25:30.936Z,23.80
2019-02-26T08:26:30.934Z,23.40
2019-02-26T08:27:33.194Z,24.40
2019-02-26T08:28:30.940Z,24.80
2019-02-26T08:29:31.853Z,24.10
2019-02-26T08:30:30.956Z,24.40
2019-02-26T08:31:30.928Z,25.10
2019-02-26T08:32:30.926Z,23.80
2019-02-26T08:33:30.926Z,24.50
2019-02-26T08:34:30.931Z,23.60
2019-02-26T08:35:30.928Z,23.20
2019-02-26T08:36:30.928Z,23.90
2019-02-26T08:37:30.926Z,22.80
2019-02-26T08:38:30.935Z,24.10
2019-02-26T08:39:30.925Z,23.10
2019-02-26T08:40:30.922Z,22.90
2019-02-26T08:41:30.922Z,22.50
2019-02-26T08:42:30.937Z,23.60
2019-02-26T08:43:30.920Z,22.90
2019-02-26T08:44:30.919Z,22.90
2019-02-26T08:45:31.271Z,22.80
2019-02-26T08:46:30.920Z,22.20
2019-02-26T08:47:30.921Z,22.00
2019-02-26T08:48:30.917Z,22.90
2019-02-26T08:49:30.920Z,21.90
2019-02-26T08:50:33.282Z,22.70
2019-02-26T08:51:30.918Z,22.50
2019-02-26T08:52:30.928Z,21.90
2019-02-26T08:53:31.598Z,21.50
2019-02-26T08:54:33.146Z,23.70
2019-02-26T08:55:30.917Z,23.00
2019-02-26T08:56:33.566Z,24.60
2019-02-26T08:57:30.918Z,23.90
2019-02-26T08:58:30.920Z,24.00
2019-02-26T08:59:30.916Z,24.30
2019-02-26T09:00:30.917Z,24.00
2019-02-26T09:01:30.926Z,24.30
2019-02-26T09:02:30.918Z,23.60
2019-02-26T09:03:40.124Z,25.10
2019-02-26T09:04:30.919Z,23.60
2019-02-26T09:05:33.857Z,22.80
2019-02-26T09:06:30.920Z,22.30
2019-02-26T09:07:30.926Z,22.80
2019-02-26T09:08:32.931Z,22.40
2019-02-26T09:09:32.701Z,21.50
2019-02-26T09:10:30.920Z,22.10
2019-02-26T09:11:31.877Z,22.00
2019-02-26T09:12:30.920Z,22.20
2019-02-26T09:13:33.399Z,22.10
2019-02-26T09:14:34.490Z,21.50
2019-02-26T09:15:31.269Z,22.10
2019-02-26T09:16:32.810Z,21.20
2019-02-26T09:17:32.526Z,20.80
2019-02-26T09:18:32.534Z,21.20
2019-02-26T09:19:32.863Z,20.70
2019-02-26T09:20:30.925Z,20.40
2019-02-26T09:21:30.926Z,20.20
2019-02-26T09:22:30.944Z,19.60
2019-02-26T09:23:32.739Z,20.80
2019-02-26T09:24:30.931Z,19.10
2019-02-26T09:25:31.564Z,18.20
2019-02-26T09:26:30.925Z,19.80
2019-02-26T09:27:32.125Z,21.20
2019-02-26T09:28:32.082Z,20.30
2019-02-26T09:29:31.438Z,20.90
2019-02-26T09:30:33.410Z,20.40
2019-02-26T09:31:30.928Z,19.90
2019-02-26T09:32:32.373Z,20.50
2019-02-26T09:33:32.983Z,20.30
2019-02-26T09:34:31.747Z,20.70
2019-02-26T09:35:32.998Z,19.90
2019-02-26T09:36:30.929Z,19.40
2019-02-26T09:37:30.927Z,20.20
2019-02-26T09:38:30.928Z,21.10
2019-02-26T09:39:32.477Z,18.80
2019-02-26T09:40:34.238Z,21.00
2019-02-26T09:41:33.238Z,19.70
2019-02-26T09:42:32.461Z,19.90
2019-02-26T09:43:30.929Z,20.30
2019-02-26T09:44:32.843Z,19.70
2019-02-26T09:45:30.926Z,19.90
2019-02-26T09:46:31.747Z,19.80
2019-02-26T09:47:33.330Z,20.80
2019-02-26T09:48:30.928Z,19.40
2019-02-26T09:49:33.198Z,19.80
2019-02-26T09:50:30.933Z,20.10
2019-02-26T09:51:32.870Z,19.20
2019-02-26T09:52:32.723Z,20.00
2019-02-26T09:53:30.927Z,19.40
2019-02-26T09:54:30.922Z,19.90
2019-02-26T09:55:30.925Z,21.30
2019-02-26T09:56:30.923Z,22.80
2019-02-26T09:57:30.932Z,23.20
2019-02-26T09:58:30.919Z,23.00
2019-02-26T09:59:31.881Z,20.20
2019-02-26T10:00:30.916Z,21.00
2019-02-26T10:01:33.142Z,18.90
2019-02-26T10:02:30.912Z,20.30
2019-02-26T10:03:34.475Z,26.40
2019-02-26T10:04:30.908Z,20.00
2019-02-26T10:05:30.913Z,20.10
2019-02-26T10:06:30.904Z,21.20
2019-02-26T10:07:33.127Z,21.40
2019-02-26T10:08:30.899Z,20.20
2019-02-26T10:09:32.970Z,20.90
2019-02-26T10:10:33.511Z,21.40
2019-02-26T10:11:30.893Z,20.10
2019-02-26T10:12:32.261Z,22.50
2019-02-26T10:13:30.887Z,19.70
2019-02-26T10:14:31.643Z,19.00
2019-02-26T10:15:32.335Z,20.90
2019-02-26T10:16:32.999Z,18.80
2019-02-26T10:17:33.443Z,19.90
2019-02-26T10:18:32.832Z,19.80
2019-02-26T10:19:32.875Z,19.70
2019-02-26T10:20:31.767Z,19.20
2019-02-26T10:21:33.104Z,19.70
2019-02-26T10:22:33.319Z,22.00
2019-02-26T10:23:33.101Z,20.30
2019-02-26T10:24:32.893Z,20.10
2019-02-26T10:25:32.088Z,25.50
2019-02-26T10:26:33.106Z,26.10
2019-02-26T10:27:33.720Z,20.60
2019-02-26T10:28:30.848Z,20.50
2019-02-26T10:29:32.385Z,21.00
2019-02-26T10:30:33.478Z,21.90
2019-02-26T10:31:30.843Z,21.10
2019-02-26T10:32:32.739Z,20.30
2019-02-26T10:33:31.606Z,20.30
2019-02-26T10:34:30.820Z,20.20
2019-02-26T10:35:36.247Z,20.80
2019-02-26T10:36:34.715Z,20.40
2019-02-26T10:37:31.901Z,21.10
2019-02-26T10:38:33.221Z,20.30
2019-02-26T10:39:32.136Z,19.50
2019-02-26T10:40:35.696Z,20.00
2019-02-26T10:41:30.788Z,18.40
2019-02-26T10:42:39.600Z,19.70
2019-02-26T10:43:30.783Z,19.10
2019-02-26T10:44:30.775Z,18.80
2019-02-26T10:45:30.781Z,19.20
2019-02-26T10:46:32.159Z,19.10
2019-02-26T10:47:32.741Z,19.20
2019-02-26T10:48:30.779Z,19.70
2019-02-26T10:49:30.753Z,19.50
2019-02-26T10:50:31.878Z,18.10
2019-02-26T10:51:30.749Z,20.20
2019-02-26T10:52:30.756Z,19.30
2019-02-26T10:53:30.727Z,19.40
2019-02-26T10:54:34.654Z,19.60
2019-02-26T10:55:38.125Z,19.40
2019-02-26T10:56:36.285Z,20.10
2019-02-26T10:57:31.186Z,19.70
2019-02-26T10:58:30.702Z,20.30
2019-02-26T10:59:30.696Z,19.90
2019-02-26T11:00:34.023Z,19.00
2019-02-26T11:01:31.531Z,19.60
2019-02-26T11:02:30.680Z,19.50
2019-02-26T11:03:35.395Z,19.00
2019-02-26T11:04:34.621Z,19.80
2019-02-26T11:05:30.670Z,18.90
2019-02-26T11:06:33.151Z,18.70
2019-02-26T11:07:31.908Z,19.20
2019-02-26T11:08:32.810Z,19.70
2019-02-26T11:09:31.969Z,19.00
2019-02-26T11:10:30.643Z,19.70
2019-02-26T11:11:32.786Z,18.80
2019-02-26T11:12:33.840Z,20.00
2019-02-26T11:13:30.617Z,20.20
2019-02-26T11:14:31.745Z,18.40
2019-02-26T11:15:33.404Z,19.70
2019-02-26T11:16:32.901Z,20.60
2019-02-26T11:17:31.637Z,19.40
2019-02-26T11:18:30.602Z,20.20
2019-02-26T11:19:33.830Z,20.60
2019-02-26T11:20:33.899Z,20.70
2019-02-26T11:21:30.633Z,21.10
2019-02-26T11:22:30.567Z,20.30
2019-02-26T11:23:32.067Z,21.20
2019-02-26T11:24:31.598Z,21.10
2019-02-26T11:25:30.552Z,21.40
2019-02-26T11:26:32.351Z,21.40
2019-02-26T11:27:30.544Z,22.70
2019-02-26T11:28:33.231Z,21.60
2019-02-26T11:29:32.977Z,22.20
2019-02-26T11:30:32.210Z,21.30
2019-02-26T11:31:30.520Z,21.60
2019-02-26T11:32:32.520Z,22.30
2019-02-26T11:33:30.662Z,22.00
2019-02-26T11:34:33.365Z,21.40
2019-02-26T11:35:30.496Z,21.50
2019-02-26T11:36:32.913Z,22.20
2019-02-26T11:37:32.044Z,22.10
2019-02-26T11:38:30.474Z,22.30
2019-02-26T11:39:30.470Z,22.60
2019-02-26T11:40:30.815Z,21.90
2019-02-26T11:41:31.219Z,22.70
2019-02-26T11:42:30.448Z,22.80
2019-02-26T11:43:30.444Z,22.30
2019-02-26T11:44:30.437Z,23.40
2019-02-26T11:45:32.378Z,22.20
2019-02-26T11:46:34.097Z,22.10
2019-02-26T11:47:32.239Z,22.40
2019-02-26T11:48:32.837Z,22.20
2019-02-26T11:49:31.163Z,23.00
2019-02-26T11:50:30.417Z,22.50
2019-02-26T11:51:36.848Z,22.30
2019-02-26T11:52:30.388Z,22.90
2019-02-26T11:53:30.431Z,22.40
2019-02-26T11:54:34.061Z,22.60
2019-02-26T11:55:32.407Z,21.00
2019-02-26T11:56:30.367Z,22.40
2019-02-26T11:57:34.925Z,22.40
2019-02-26T11:58:30.350Z,22.20
2019-02-26T11:59:31.598Z,22.60
2019-02-26T12:00:33.841Z,22.90
2019-02-26T12:01:32.229Z,21.90
2019-02-26T12:02:33.803Z,21.90
2019-02-26T12:03:33.345Z,22.70
2019-02-26T12:04:30.309Z,22.70
2019-02-26T12:05:33.415Z,21.30
2019-02-26T12:06:30.308Z,21.80
2019-02-26T12:07:32.271Z,22.30
2019-02-26T12:08:30.283Z,22.70
2019-02-26T12:09:32.990Z,21.90
2019-02-26T12:10:32.508Z,21.70
2019-02-26T12:11:30.265Z,21.60
2019-02-26T12:12:31.139Z,24.30
2019-02-26T12:13:30.259Z,21.50
2019-02-26T12:14:30.245Z,20.60
2019-02-26T12:15:32.803Z,21.00
2019-02-26T12:16:30.239Z,20.80
2019-02-26T12:17:30.225Z,19.80
2019-02-26T12:18:30.214Z,20.30
2019-02-26T12:19:31.189Z,20.00
2019-02-26T12:20:30.200Z,19.60
2019-02-26T12:21:32.205Z,20.60
2019-02-26T12:22:30.200Z,19.90
2019-02-26T12:23:30.181Z,19.60
2019-02-26T12:24:31.374Z,20.20
2019-02-26T12:25:30.170Z,20.50
2019-02-26T12:26:30.287Z,21.00
2019-02-26T12:27:30.171Z,22.00
2019-02-26T12:28:34.166Z,21.70
2019-02-26T12:29:30.146Z,22.50
2019-02-26T12:30:31.969Z,21.00
2019-02-26T12:31:31.834Z,20.70
2019-02-26T12:32:30.118Z,21.70
2019-02-26T12:33:32.456Z,21.10
2019-02-26T12:34:30.109Z,20.30
2019-02-26T12:35:33.187Z,20.00
2019-02-26T12:36:32.534Z,20.90
2019-02-26T12:37:30.087Z,19.50
2019-02-26T12:38:30.090Z,20.90
2019-02-26T12:39:31.388Z,19.80
2019-02-26T12:40:30.071Z,19.80
2019-02-26T12:41:32.418Z,19.90
2019-02-26T12:42:30.059Z,19.90
2019-02-26T12:43:30.787Z,20.40
2019-02-26T12:44:31.904Z,19.70
2019-02-26T12:45:31.851Z,19.90
2019-02-26T12:46:31.223Z,19.90
2019-02-26T12:47:30.018Z,19.50
2019-02-26T12:48:30.006Z,20.40
2019-02-26T12:49:32.617Z,19.20
2019-02-26T12:50:32.784Z,19.90
2019-02-26T12:51:31.927Z,20.10
2019-02-26T12:52:30.369Z,19.90